sensor_id;sensor_type;location;lat;lon;timestamp;pressure;altitude;pressure_sealevel;temperature;humidity
29907;BME280;16776;50.958;10.994;2022-08-03T00:00:49;98627.59;;;19.36;80.82
29907;BME280;16776;50.958;10.994;2022-08-03T00:03:15;98633.00;;;19.33;80.84
29907;BME280;16776;50.958;10.994;2022-08-03T00:05:42;98626.31;;;19.29;80.96
29907;BME280;16776;50.958;10.994;2022-08-03T00:08:08;98628.16;;;19.27;80.93
29907;BME280;16776;50.958;10.994;2022-08-03T00:10:35;98624.00;;;19.25;80.98
29907;BME280;16776;50.958;10.994;2022-08-03T00:13:03;98620.53;;;19.24;80.78
29907;BME280;16776;50.958;10.994;2022-08-03T00:15:30;98620.78;;;19.20;80.92
29907;BME280;16776;50.958;10.994;2022-08-03T00:17:56;98617.44;;;19.18;81.09
29907;BME280;16776;50.958;10.994;2022-08-03T00:20:23;98615.13;;;19.13;81.13
29907;BME280;16776;50.958;10.994;2022-08-03T00:22:50;98614.44;;;19.10;81.07
29907;BME280;16776;50.958;10.994;2022-08-03T00:25:17;98620.69;;;19.07;81.07
29907;BME280;16776;50.958;10.994;2022-08-03T00:27:43;98614.81;;;19.04;81.23
29907;BME280;16776;50.958;10.994;2022-08-03T00:30:11;98613.06;;;19.04;81.24
29907;BME280;16776;50.958;10.994;2022-08-03T00:32:38;98609.91;;;18.99;81.27
29907;BME280;16776;50.958;10.994;2022-08-03T00:35:05;98614.38;;;18.97;81.26
29907;BME280;16776;50.958;10.994;2022-08-03T00:37:32;98611.19;;;18.92;81.50
29907;BME280;16776;50.958;10.994;2022-08-03T00:39:59;98605.31;;;18.88;81.31
29907;BME280;16776;50.958;10.994;2022-08-03T00:42:25;98610.75;;;18.85;81.46
29907;BME280;16776;50.958;10.994;2022-08-03T00:44:52;98613.50;;;18.82;81.39
29907;BME280;16776;50.958;10.994;2022-08-03T00:47:20;98613.50;;;18.82;81.27
29907;BME280;16776;50.958;10.994;2022-08-03T00:49:46;98614.81;;;18.75;81.36
29907;BME280;16776;50.958;10.994;2022-08-03T00:52:14;98617.53;;;18.74;81.42
29907;BME280;16776;50.958;10.994;2022-08-03T00:54:41;98611.72;;;18.69;81.47
29907;BME280;16776;50.958;10.994;2022-08-03T00:57:08;98608.47;;;18.65;81.45
29907;BME280;16776;50.958;10.994;2022-08-03T00:59:35;98594.59;;;18.50;81.60
29907;BME280;16776;50.958;10.994;2022-08-03T01:02:02;98619.28;;;18.59;81.68
29907;BME280;16776;50.958;10.994;2022-08-03T01:04:30;98614.91;;;18.60;81.71
29907;BME280;16776;50.958;10.994;2022-08-03T01:07:02;98616.59;;;18.61;81.57
29907;BME280;16776;50.958;10.994;2022-08-03T01:09:39;98613.16;;;18.60;81.74
29907;BME280;16776;50.958;10.994;2022-08-03T01:12:09;98619.47;;;18.56;81.67
29907;BME280;16776;50.958;10.994;2022-08-03T01:14:40;98620.97;;;18.60;80.90
29907;BME280;16776;50.958;10.994;2022-08-03T01:17:12;98615.56;;;18.49;81.90
29907;BME280;16776;50.958;10.994;2022-08-03T01:19:45;98616.38;;;18.49;81.77
29907;BME280;16776;50.958;10.994;2022-08-03T01:22:26;98615.56;;;18.49;81.94
29907;BME280;16776;50.958;10.994;2022-08-03T01:25:02;98612.44;;;18.42;81.81
29907;BME280;16776;50.958;10.994;2022-08-03T01:27:42;98613.25;;;18.43;81.73
29907;BME280;16776;50.958;10.994;2022-08-03T01:30:18;98585.94;;;18.20;81.80
29907;BME280;16776;50.958;10.994;2022-08-03T01:32:47;98610.44;;;18.32;82.04
29907;BME280;16776;50.958;10.994;2022-08-03T01:35:21;98607.91;;;18.30;81.78
29907;BME280;16776;50.958;10.994;2022-08-03T01:37:54;98609.03;;;18.26;82.02
29907;BME280;16776;50.958;10.994;2022-08-03T01:40:24;98610.16;;;18.22;81.84
29907;BME280;16776;50.958;10.994;2022-08-03T01:42:53;98612.19;;;18.17;81.96
29907;BME280;16776;50.958;10.994;2022-08-03T01:45:23;98613.00;;;18.17;82.10
29907;BME280;16776;50.958;10.994;2022-08-03T01:47:50;98606.59;;;18.09;82.28
29907;BME280;16776;50.958;10.994;2022-08-03T01:50:20;98607.50;;;18.08;82.12
29907;BME280;16776;50.958;10.994;2022-08-03T01:52:48;98597.88;;;17.94;82.34
29907;BME280;16776;50.958;10.994;2022-08-03T01:55:18;98604.34;;;18.03;82.39
29907;BME280;16776;50.958;10.994;2022-08-03T01:57:47;98568.50;;;17.76;82.30
29907;BME280;16776;50.958;10.994;2022-08-03T02:00:15;98603.28;;;17.91;82.36
29907;BME280;16776;50.958;10.994;2022-08-03T02:02:46;98594.63;;;17.91;82.57
29907;BME280;16776;50.958;10.994;2022-08-03T02:05:15;98602.66;;;17.86;82.55
29907;BME280;16776;50.958;10.994;2022-08-03T02:07:44;98597.56;;;17.85;82.51
29907;BME280;16776;50.958;10.994;2022-08-03T02:10:12;98604.69;;;17.81;82.86
29907;BME280;16776;50.958;10.994;2022-08-03T02:12:42;98590.91;;;17.79;82.73
29907;BME280;16776;50.958;10.994;2022-08-03T02:15:10;98599.00;;;17.74;82.63
29907;BME280;16776;50.958;10.994;2022-08-03T02:17:37;98601.84;;;17.70;83.00
29907;BME280;16776;50.958;10.994;2022-08-03T02:20:06;98599.16;;;17.71;82.97
29907;BME280;16776;50.958;10.994;2022-08-03T02:22:34;98596.91;;;17.65;82.99
29907;BME280;16776;50.958;10.994;2022-08-03T02:25:06;98595.22;;;17.64;82.81
29907;BME280;16776;50.958;10.994;2022-08-03T02:27:35;98592.75;;;17.61;82.99
29907;BME280;16776;50.958;10.994;2022-08-03T02:30:07;98598.81;;;17.62;83.16
29907;BME280;16776;50.958;10.994;2022-08-03T02:32:36;98582.28;;;17.47;82.83
29907;BME280;16776;50.958;10.994;2022-08-03T02:35:08;98597.31;;;17.58;83.10
29907;BME280;16776;50.958;10.994;2022-08-03T02:37:40;98594.94;;;17.53;82.84
29907;BME280;16776;50.958;10.994;2022-08-03T02:40:09;98587.59;;;17.46;83.10
29907;BME280;16776;50.958;10.994;2022-08-03T02:42:37;98596.47;;;17.42;83.17
29907;BME280;16776;50.958;10.994;2022-08-03T02:45:06;98590.41;;;17.41;83.31
29907;BME280;16776;50.958;10.994;2022-08-03T02:47:38;98592.44;;;17.36;83.22
29907;BME280;16776;50.958;10.994;2022-08-03T02:50:09;98574.13;;;17.22;83.30
29907;BME280;16776;50.958;10.994;2022-08-03T02:52:37;98591.34;;;17.24;83.23
29907;BME280;16776;50.958;10.994;2022-08-03T02:55:06;98594.22;;;17.20;83.62
29907;BME280;16776;50.958;10.994;2022-08-03T02:57:34;98593.44;;;17.18;83.79
29907;BME280;16776;50.958;10.994;2022-08-03T03:00:03;98588.50;;;17.13;83.67
29907;BME280;16776;50.958;10.994;2022-08-03T03:02:30;98579.28;;;17.08;83.65
29907;BME280;16776;50.958;10.994;2022-08-03T03:04:59;98586.97;;;17.09;83.67
29907;BME280;16776;50.958;10.994;2022-08-03T03:07:28;98586.13;;;17.09;83.58
29907;BME280;16776;50.958;10.994;2022-08-03T03:09:55;98586.47;;;17.03;84.06
29907;BME280;16776;50.958;10.994;2022-08-03T03:12:23;98575.31;;;17.01;84.00
29907;BME280;16776;50.958;10.994;2022-08-03T03:14:51;98576.47;;;16.95;84.67
29907;BME280;16776;50.958;10.994;2022-08-03T03:17:18;98555.28;;;16.85;85.96
29907;BME280;16776;50.958;10.994;2022-08-03T03:19:46;98579.97;;;16.94;84.90
29907;BME280;16776;50.958;10.994;2022-08-03T03:22:14;98574.63;;;16.97;84.96
29907;BME280;16776;50.958;10.994;2022-08-03T03:24:44;98575.22;;;17.02;84.88
29907;BME280;16776;50.958;10.994;2022-08-03T03:27:13;98577.00;;;17.02;84.93
29907;BME280;16776;50.958;10.994;2022-08-03T03:29:40;98582.94;;;17.04;85.04
29907;BME280;16776;50.958;10.994;2022-08-03T03:32:07;98580.19;;;17.07;84.87
29907;BME280;16776;50.958;10.994;2022-08-03T03:34:34;98580.84;;;17.10;85.30
29907;BME280;16776;50.958;10.994;2022-08-03T03:37:01;98572.81;;;17.15;84.92
29907;BME280;16776;50.958;10.994;2022-08-03T03:39:28;98583.03;;;17.18;84.72
29907;BME280;16776;50.958;10.994;2022-08-03T03:41:56;98577.34;;;17.27;84.66
29907;BME280;16776;50.958;10.994;2022-08-03T03:44:25;98580.53;;;17.32;85.14
29907;BME280;16776;50.958;10.994;2022-08-03T03:46:52;98577.00;;;17.33;85.02
29907;BME280;16776;50.958;10.994;2022-08-03T03:49:19;98581.94;;;17.37;85.08
29907;BME280;16776;50.958;10.994;2022-08-03T03:51:46;98578.25;;;17.42;85.16
29907;BME280;16776;50.958;10.994;2022-08-03T03:54:13;98583.22;;;17.46;85.17
29907;BME280;16776;50.958;10.994;2022-08-03T03:56:39;98550.97;;;17.33;84.99
29907;BME280;16776;50.958;10.994;2022-08-03T03:59:07;98580.94;;;17.56;85.09
29907;BME280;16776;50.958;10.994;2022-08-03T04:01:34;98585.97;;;17.59;85.04
29907;BME280;16776;50.958;10.994;2022-08-03T04:04:03;98583.94;;;17.64;84.56
29907;BME280;16776;50.958;10.994;2022-08-03T04:06:44;98585.53;;;17.66;85.05
29907;BME280;16776;50.958;10.994;2022-08-03T04:09:29;98582.69;;;17.71;84.75
29907;BME280;16776;50.958;10.994;2022-08-03T04:12:15;98577.16;;;17.77;85.13
29907;BME280;16776;50.958;10.994;2022-08-03T04:14:45;98578.50;;;17.84;85.00
29907;BME280;16776;50.958;10.994;2022-08-03T04:17:13;98589.56;;;17.88;85.49
29907;BME280;16776;50.958;10.994;2022-08-03T04:19:43;98595.94;;;17.98;84.99
29907;BME280;16776;50.958;10.994;2022-08-03T04:22:15;98571.91;;;17.93;85.08
29907;BME280;16776;50.958;10.994;2022-08-03T04:24:45;98593.34;;;18.12;85.06
29907;BME280;16776;50.958;10.994;2022-08-03T04:27:16;98580.69;;;18.06;84.85
29907;BME280;16776;50.958;10.994;2022-08-03T04:29:50;98603.25;;;18.21;85.15
29907;BME280;16776;50.958;10.994;2022-08-03T04:32:19;98592.00;;;18.21;84.86
29907;BME280;16776;50.958;10.994;2022-08-03T04:34:47;98605.50;;;18.27;84.88
29907;BME280;16776;50.958;10.994;2022-08-03T04:37:18;98605.63;;;18.40;85.57
29907;BME280;16776;50.958;10.994;2022-08-03T04:39:48;98601.63;;;18.34;85.48
29907;BME280;16776;50.958;10.994;2022-08-03T04:42:15;98610.44;;;18.47;85.80
29907;BME280;16776;50.958;10.994;2022-08-03T04:44:47;98605.31;;;18.60;85.64
29907;BME280;16776;50.958;10.994;2022-08-03T04:47:14;98604.88;;;18.68;86.01
29907;BME280;16776;50.958;10.994;2022-08-03T04:49:41;98615.41;;;18.80;85.80
29907;BME280;16776;50.958;10.994;2022-08-03T04:52:08;98604.31;;;18.91;86.06
29907;BME280;16776;50.958;10.994;2022-08-03T04:54:38;98612.03;;;19.07;85.81
29907;BME280;16776;50.958;10.994;2022-08-03T04:57:05;98618.00;;;19.09;85.98
29907;BME280;16776;50.958;10.994;2022-08-03T04:59:31;98619.28;;;19.16;85.74
29907;BME280;16776;50.958;10.994;2022-08-03T05:01:59;98612.78;;;19.23;85.97
29907;BME280;16776;50.958;10.994;2022-08-03T05:04:26;98615.22;;;19.26;86.07
29907;BME280;16776;50.958;10.994;2022-08-03T05:06:52;98612.22;;;19.32;85.86
29907;BME280;16776;50.958;10.994;2022-08-03T05:09:19;98621.53;;;19.36;85.71
29907;BME280;16776;50.958;10.994;2022-08-03T05:11:48;98619.28;;;19.44;85.54
29907;BME280;16776;50.958;10.994;2022-08-03T05:14:15;98617.69;;;19.42;85.88
29907;BME280;16776;50.958;10.994;2022-08-03T05:16:42;98621.06;;;19.44;85.83
29907;BME280;16776;50.958;10.994;2022-08-03T05:19:09;98621.38;;;19.52;85.69
29907;BME280;16776;50.958;10.994;2022-08-03T05:21:36;98617.00;;;19.52;85.49
29907;BME280;16776;50.958;10.994;2022-08-03T05:24:03;98619.34;;;19.57;85.84
29907;BME280;16776;50.958;10.994;2022-08-03T05:26:30;98607.66;;;19.62;85.69
29907;BME280;16776;50.958;10.994;2022-08-03T05:28:56;98618.47;;;19.70;85.58
29907;BME280;16776;50.958;10.994;2022-08-03T05:31:23;98617.25;;;19.76;85.88
29907;BME280;16776;50.958;10.994;2022-08-03T05:33:49;98619.25;;;19.85;85.79
29907;BME280;16776;50.958;10.994;2022-08-03T05:36:17;98609.78;;;19.97;86.06
29907;BME280;16776;50.958;10.994;2022-08-03T05:38:44;98616.19;;;20.05;85.78
29907;BME280;16776;50.958;10.994;2022-08-03T05:41:10;98613.84;;;20.15;86.15
29907;BME280;16776;50.958;10.994;2022-08-03T05:43:37;98610.50;;;20.26;86.17
29907;BME280;16776;50.958;10.994;2022-08-03T05:46:03;98612.19;;;20.39;85.99
29907;BME280;16776;50.958;10.994;2022-08-03T05:48:32;98616.59;;;20.51;86.28
29907;BME280;16776;50.958;10.994;2022-08-03T05:50:59;98612.34;;;20.63;86.30
29907;BME280;16776;50.958;10.994;2022-08-03T05:53:27;98616.53;;;20.78;85.78
29907;BME280;16776;50.958;10.994;2022-08-03T05:55:54;98614.84;;;20.90;86.41
29907;BME280;16776;50.958;10.994;2022-08-03T05:58:20;98613.06;;;21.03;86.49
29907;BME280;16776;50.958;10.994;2022-08-03T06:00:47;98621.50;;;21.19;86.36
29907;BME280;16776;50.958;10.994;2022-08-03T06:03:13;98618.56;;;21.37;86.38
29907;BME280;16776;50.958;10.994;2022-08-03T06:05:40;98618.19;;;21.54;86.01
29907;BME280;16776;50.958;10.994;2022-08-03T06:08:06;98615.09;;;21.72;85.69
29907;BME280;16776;50.958;10.994;2022-08-03T06:10:34;98615.66;;;21.89;86.02
29907;BME280;16776;50.958;10.994;2022-08-03T06:13:01;98614.63;;;22.02;85.72
29907;BME280;16776;50.958;10.994;2022-08-03T06:15:27;98605.53;;;22.19;85.72
29907;BME280;16776;50.958;10.994;2022-08-03T06:17:55;98612.03;;;22.37;85.84
29907;BME280;16776;50.958;10.994;2022-08-03T06:20:22;98611.72;;;22.53;85.63
29907;BME280;16776;50.958;10.994;2022-08-03T06:22:48;98613.06;;;22.70;85.40
29907;BME280;16776;50.958;10.994;2022-08-03T06:25:15;98613.56;;;22.86;85.61
29907;BME280;16776;50.958;10.994;2022-08-03T06:27:43;98610.47;;;23.03;85.88
29907;BME280;16776;50.958;10.994;2022-08-03T06:30:11;98609.28;;;23.18;86.37
29907;BME280;16776;50.958;10.994;2022-08-03T06:32:38;98614.88;;;23.36;85.41
29907;BME280;16776;50.958;10.994;2022-08-03T06:35:05;98613.41;;;23.54;85.37
29907;BME280;16776;50.958;10.994;2022-08-03T06:37:42;98615.78;;;23.80;84.81
29907;BME280;16776;50.958;10.994;2022-08-03T06:40:10;98615.84;;;23.89;84.80
29907;BME280;16776;50.958;10.994;2022-08-03T06:42:37;98608.72;;;24.01;84.61
29907;BME280;16776;50.958;10.994;2022-08-03T06:45:06;98601.66;;;24.13;84.02
29907;BME280;16776;50.958;10.994;2022-08-03T06:47:34;98621.53;;;24.26;84.41
29907;BME280;16776;50.958;10.994;2022-08-03T06:50:00;98621.38;;;24.39;83.91
29907;BME280;16776;50.958;10.994;2022-08-03T06:52:27;98622.00;;;24.52;84.84
29907;BME280;16776;50.958;10.994;2022-08-03T06:54:53;98620.59;;;24.69;84.38
29907;BME280;16776;50.958;10.994;2022-08-03T06:57:20;98620.81;;;24.86;84.29
29907;BME280;16776;50.958;10.994;2022-08-03T06:59:46;98622.88;;;25.04;84.06
29907;BME280;16776;50.958;10.994;2022-08-03T07:02:15;98625.44;;;25.24;83.96
29907;BME280;16776;50.958;10.994;2022-08-03T07:04:43;98626.75;;;25.40;83.76
29907;BME280;16776;50.958;10.994;2022-08-03T07:07:10;98620.13;;;25.55;83.66
29907;BME280;16776;50.958;10.994;2022-08-03T07:09:36;98628.63;;;25.68;83.09
29907;BME280;16776;50.958;10.994;2022-08-03T07:12:03;98624.06;;;25.80;83.02
29907;BME280;16776;50.958;10.994;2022-08-03T07:14:31;98620.06;;;25.85;83.10
29907;BME280;16776;50.958;10.994;2022-08-03T07:16:57;98623.41;;;25.97;83.57
29907;BME280;16776;50.958;10.994;2022-08-03T07:19:25;98614.41;;;26.09;83.19
29907;BME280;16776;50.958;10.994;2022-08-03T07:21:57;98613.41;;;26.20;83.39
29907;BME280;16776;50.958;10.994;2022-08-03T07:24:24;98613.94;;;26.33;83.84
29907;BME280;16776;50.958;10.994;2022-08-03T07:26:50;98604.47;;;26.50;84.08
29907;BME280;16776;50.958;10.994;2022-08-03T07:29:17;98604.59;;;26.67;83.29
29907;BME280;16776;50.958;10.994;2022-08-03T07:31:44;98608.03;;;26.87;82.97
29907;BME280;16776;50.958;10.994;2022-08-03T07:34:11;98616.00;;;27.05;82.90
29907;BME280;16776;50.958;10.994;2022-08-03T07:36:39;98616.94;;;27.23;83.03
29907;BME280;16776;50.958;10.994;2022-08-03T07:39:05;98612.13;;;27.36;82.69
29907;BME280;16776;50.958;10.994;2022-08-03T07:41:32;98608.16;;;27.50;83.24
29907;BME280;16776;50.958;10.994;2022-08-03T07:43:58;98618.22;;;27.64;82.45
29907;BME280;16776;50.958;10.994;2022-08-03T07:46:25;98615.25;;;27.77;82.83
29907;BME280;16776;50.958;10.994;2022-08-03T07:48:51;98608.75;;;27.89;82.11
29907;BME280;16776;50.958;10.994;2022-08-03T07:51:18;98605.72;;;28.01;82.44
29907;BME280;16776;50.958;10.994;2022-08-03T07:53:46;98601.53;;;28.17;82.41
29907;BME280;16776;50.958;10.994;2022-08-03T07:56:12;98605.94;;;28.26;81.84
29907;BME280;16776;50.958;10.994;2022-08-03T07:58:41;98610.00;;;28.38;82.37
29907;BME280;16776;50.958;10.994;2022-08-03T08:01:07;98602.63;;;28.50;81.55
29907;BME280;16776;50.958;10.994;2022-08-03T08:03:34;98603.38;;;28.60;81.85
29907;BME280;16776;50.958;10.994;2022-08-03T08:06:00;98575.38;;;28.57;82.02
29907;BME280;16776;50.958;10.994;2022-08-03T08:08:27;98594.59;;;28.85;81.47
29907;BME280;16776;50.958;10.994;2022-08-03T08:10:55;98596.50;;;29.01;82.11
29907;BME280;16776;50.958;10.994;2022-08-03T08:13:22;98596.88;;;29.14;81.03
29907;BME280;16776;50.958;10.994;2022-08-03T08:15:48;98591.69;;;29.30;80.12
29907;BME280;16776;50.958;10.994;2022-08-03T08:18:15;98597.03;;;29.46;80.93
29907;BME280;16776;50.958;10.994;2022-08-03T08:20:41;98597.22;;;29.61;81.02
29907;BME280;16776;50.958;10.994;2022-08-03T08:23:08;98585.50;;;29.80;81.48
29907;BME280;16776;50.958;10.994;2022-08-03T08:25:35;98579.88;;;29.99;80.58
29907;BME280;16776;50.958;10.994;2022-08-03T08:28:03;98591.50;;;30.22;80.07
29907;BME280;16776;50.958;10.994;2022-08-03T08:30:31;98593.66;;;30.35;79.29
29907;BME280;16776;50.958;10.994;2022-08-03T08:32:58;98588.81;;;30.47;79.03
29907;BME280;16776;50.958;10.994;2022-08-03T08:35:24;98591.31;;;30.56;79.04
29907;BME280;16776;50.958;10.994;2022-08-03T08:37:51;98589.78;;;30.62;78.72
29907;BME280;16776;50.958;10.994;2022-08-03T08:40:19;98594.13;;;30.71;79.03
29907;BME280;16776;50.958;10.994;2022-08-03T08:42:47;98593.47;;;30.77;79.11
29907;BME280;16776;50.958;10.994;2022-08-03T08:45:15;98594.59;;;30.91;79.25
29907;BME280;16776;50.958;10.994;2022-08-03T08:47:45;98594.88;;;31.04;78.80
29907;BME280;16776;50.958;10.994;2022-08-03T08:50:13;98586.84;;;31.12;78.34
29907;BME280;16776;50.958;10.994;2022-08-03T08:52:46;98588.97;;;31.25;77.88
29907;BME280;16776;50.958;10.994;2022-08-03T08:55:20;98588.06;;;31.40;77.15
29907;BME280;16776;50.958;10.994;2022-08-03T08:57:48;98588.91;;;31.41;77.22
29907;BME280;16776;50.958;10.994;2022-08-03T09:00:17;98587.31;;;31.54;77.91
29907;BME280;16776;50.958;10.994;2022-08-03T09:02:44;98578.94;;;31.66;77.46
29907;BME280;16776;50.958;10.994;2022-08-03T09:05:12;98583.69;;;31.78;77.85
29907;BME280;16776;50.958;10.994;2022-08-03T09:07:39;98582.25;;;31.90;76.05
29907;BME280;16776;50.958;10.994;2022-08-03T09:10:10;98582.84;;;32.01;75.33
29907;BME280;16776;50.958;10.994;2022-08-03T09:12:38;98583.50;;;32.03;75.70
29907;BME280;16776;50.958;10.994;2022-08-03T09:15:23;98570.44;;;32.16;76.06
29907;BME280;16776;50.958;10.994;2022-08-03T09:17:51;98577.44;;;32.09;75.32
29907;BME280;16776;50.958;10.994;2022-08-03T09:20:19;98570.16;;;32.11;75.14
29907;BME280;16776;50.958;10.994;2022-08-03T09:22:57;98570.38;;;32.24;75.05
29907;BME280;16776;50.958;10.994;2022-08-03T09:25:29;98551.94;;;32.14;75.84
29907;BME280;16776;50.958;10.994;2022-08-03T09:28:07;98571.91;;;32.33;74.18
29907;BME280;16776;50.958;10.994;2022-08-03T09:30:36;98570.63;;;32.29;74.77
29907;BME280;16776;50.958;10.994;2022-08-03T09:33:04;98570.63;;;32.29;74.85
29907;BME280;16776;50.958;10.994;2022-08-03T09:35:31;98567.16;;;32.28;74.33
29907;BME280;16776;50.958;10.994;2022-08-03T09:38:12;98567.53;;;32.40;74.53
29907;BME280;16776;50.958;10.994;2022-08-03T09:40:39;98561.09;;;32.34;74.65
29907;BME280;16776;50.958;10.994;2022-08-03T09:43:07;98554.84;;;32.42;74.07
29907;BME280;16776;50.958;10.994;2022-08-03T09:45:39;98547.78;;;32.49;75.19
29907;BME280;16776;50.958;10.994;2022-08-03T09:48:23;98552.69;;;32.75;74.84
29907;BME280;16776;50.958;10.994;2022-08-03T09:50:50;98557.03;;;32.76;74.38
29907;BME280;16776;50.958;10.994;2022-08-03T09:53:18;98549.38;;;32.88;74.03
29907;BME280;16776;50.958;10.994;2022-08-03T09:55:50;98550.06;;;32.96;74.10
29907;BME280;16776;50.958;10.994;2022-08-03T09:58:18;98549.19;;;33.04;73.12
29907;BME280;16776;50.958;10.994;2022-08-03T10:00:55;98547.06;;;33.14;74.09
29907;BME280;16776;50.958;10.994;2022-08-03T10:03:22;98543.66;;;33.05;73.20
29907;BME280;16776;50.958;10.994;2022-08-03T10:05:49;98542.84;;;33.05;73.11
29907;BME280;16776;50.958;10.994;2022-08-03T10:08:17;98532.44;;;32.95;72.76
29907;BME280;16776;50.958;10.994;2022-08-03T10:10:45;98538.03;;;33.00;73.30
29907;BME280;16776;50.958;10.994;2022-08-03T10:13:13;98543.38;;;33.00;73.78
29907;BME280;16776;50.958;10.994;2022-08-03T10:15:40;98543.00;;;33.03;73.68
29907;BME280;16776;50.958;10.994;2022-08-03T10:18:08;98538.41;;;33.12;73.66
29907;BME280;16776;50.958;10.994;2022-08-03T10:20:37;98539.97;;;33.21;73.79
29907;BME280;16776;50.958;10.994;2022-08-03T10:23:07;98537.91;;;33.23;73.21
29907;BME280;16776;50.958;10.994;2022-08-03T10:25:34;98533.47;;;33.30;73.69
29907;BME280;16776;50.958;10.994;2022-08-03T10:28:03;98528.22;;;33.37;73.48
29907;BME280;16776;50.958;10.994;2022-08-03T10:30:31;98535.75;;;33.48;73.88
29907;BME280;16776;50.958;10.994;2022-08-03T10:33:02;98529.72;;;33.61;73.14
29907;BME280;16776;50.958;10.994;2022-08-03T10:35:31;98533.72;;;33.71;73.63
29907;BME280;16776;50.958;10.994;2022-08-03T10:38:01;98534.63;;;33.78;73.55
29907;BME280;16776;50.958;10.994;2022-08-03T10:40:30;98520.50;;;33.84;73.79
29907;BME280;16776;50.958;10.994;2022-08-03T10:43:06;98518.19;;;34.03;73.76
29907;BME280;16776;50.958;10.994;2022-08-03T10:45:39;98512.44;;;34.06;73.15
29907;BME280;16776;50.958;10.994;2022-08-03T10:48:07;98498.44;;;33.97;72.52
29907;BME280;16776;50.958;10.994;2022-08-03T10:50:35;98495.22;;;34.08;73.23
29907;BME280;16776;50.958;10.994;2022-08-03T10:53:04;98515.03;;;34.20;72.43
29907;BME280;16776;50.958;10.994;2022-08-03T10:55:32;98516.94;;;34.26;72.83
29907;BME280;16776;50.958;10.994;2022-08-03T10:58:13;98486.00;;;34.11;72.60
29907;BME280;16776;50.958;10.994;2022-08-03T11:00:47;98504.31;;;34.42;72.70
29907;BME280;16776;50.958;10.994;2022-08-03T11:03:14;98499.28;;;34.32;72.54
29907;BME280;16776;50.958;10.994;2022-08-03T11:05:45;98503.34;;;34.49;72.66
29907;BME280;16776;50.958;10.994;2022-08-03T11:08:26;98510.19;;;34.65;72.67
29907;BME280;16776;50.958;10.994;2022-08-03T11:10:57;98504.19;;;34.63;72.35
29907;BME280;16776;50.958;10.994;2022-08-03T11:13:26;98496.84;;;34.72;72.34
29907;BME280;16776;50.958;10.994;2022-08-03T11:15:57;98506.59;;;34.79;71.75
29907;BME280;16776;50.958;10.994;2022-08-03T11:18:24;98497.34;;;34.82;71.61
29907;BME280;16776;50.958;10.994;2022-08-03T11:20:54;98498.19;;;34.89;72.64
29907;BME280;16776;50.958;10.994;2022-08-03T11:23:43;98493.28;;;34.99;71.91
29907;BME280;16776;50.958;10.994;2022-08-03T11:26:14;98499.41;;;34.86;72.17
29907;BME280;16776;50.958;10.994;2022-08-03T11:28:43;98497.97;;;34.90;71.81
29907;BME280;16776;50.958;10.994;2022-08-03T11:31:44;98489.63;;;35.06;72.03
29907;BME280;16776;50.958;10.994;2022-08-03T11:34:15;98497.81;;;34.98;72.41
29907;BME280;16776;50.958;10.994;2022-08-03T11:37:20;98489.84;;;35.18;72.68
29907;BME280;16776;50.958;10.994;2022-08-03T11:39:51;98488.81;;;35.13;70.80
29907;BME280;16776;50.958;10.994;2022-08-03T11:42:40;98485.50;;;35.17;70.74
29907;BME280;16776;50.958;10.994;2022-08-03T11:45:09;98489.13;;;34.90;70.28
29907;BME280;16776;50.958;10.994;2022-08-03T11:47:38;98481.63;;;34.72;71.18
29907;BME280;16776;50.958;10.994;2022-08-03T11:50:06;98481.34;;;34.54;71.12
29907;BME280;16776;50.958;10.994;2022-08-03T11:52:39;98471.00;;;34.44;71.09
29907;BME280;16776;50.958;10.994;2022-08-03T11:55:11;98470.56;;;34.41;70.53
29907;BME280;16776;50.958;10.994;2022-08-03T11:57:38;98480.97;;;34.29;70.65
29907;BME280;16776;50.958;10.994;2022-08-03T12:00:25;98477.94;;;34.39;70.91
29907;BME280;16776;50.958;10.994;2022-08-03T12:02:56;98480.13;;;34.28;70.68
29907;BME280;16776;50.958;10.994;2022-08-03T12:05:47;98481.03;;;34.36;71.40
29907;BME280;16776;50.958;10.994;2022-08-03T12:08:17;98473.09;;;34.21;70.75
29907;BME280;16776;50.958;10.994;2022-08-03T12:10:49;98471.44;;;34.20;70.91
29907;BME280;16776;50.958;10.994;2022-08-03T12:13:16;98474.91;;;34.14;71.21
29907;BME280;16776;50.958;10.994;2022-08-03T12:15:49;98465.72;;;34.23;71.37
29907;BME280;16776;50.958;10.994;2022-08-03T12:18:17;98466.09;;;34.20;71.39
29907;BME280;16776;50.958;10.994;2022-08-03T12:20:45;98459.97;;;34.26;71.66
29907;BME280;16776;50.958;10.994;2022-08-03T12:23:12;98444.09;;;34.24;71.98
29907;BME280;16776;50.958;10.994;2022-08-03T12:25:41;98454.75;;;34.46;71.77
29907;BME280;16776;50.958;10.994;2022-08-03T12:28:11;98452.31;;;34.51;71.26
29907;BME280;16776;50.958;10.994;2022-08-03T12:30:41;98455.41;;;34.54;70.94
29907;BME280;16776;50.958;10.994;2022-08-03T12:33:15;98454.22;;;34.63;71.63
29907;BME280;16776;50.958;10.994;2022-08-03T12:35:44;98456.06;;;34.63;71.30
29907;BME280;16776;50.958;10.994;2022-08-03T12:38:11;98453.00;;;34.66;71.26
29907;BME280;16776;50.958;10.994;2022-08-03T12:40:39;98442.94;;;34.68;71.23
29907;BME280;16776;50.958;10.994;2022-08-03T12:43:12;98428.94;;;34.73;70.65
29907;BME280;16776;50.958;10.994;2022-08-03T12:45:43;98436.34;;;34.77;70.35
29907;BME280;16776;50.958;10.994;2022-08-03T12:48:09;98439.44;;;34.67;70.43
29907;BME280;16776;50.958;10.994;2022-08-03T12:50:38;98418.16;;;34.53;70.04
29907;BME280;16776;50.958;10.994;2022-08-03T12:53:07;98425.59;;;34.57;70.61
29907;BME280;16776;50.958;10.994;2022-08-03T12:55:34;98433.56;;;34.51;70.56
29907;BME280;16776;50.958;10.994;2022-08-03T12:58:05;98430.53;;;34.54;70.84
29907;BME280;16776;50.958;10.994;2022-08-03T13:00:32;98425.38;;;34.52;71.16